^^
Station Historical Data
Daily Summary for January 2, 2018 Units:  English    Metric   Both
« Previous Day
Next Day »
Daily Weekly Monthly Yearly Custom
  High: Low: Average:
Temperature: 55.0 °F 44.1 °F 48.4 °F
Dew Point: 46.9 °F 39.8 °F 43.3 °F
Humidity: 92% 74% 83%
Wind Speed: 0.0mph 0.0mph 0mph
Wind Gust: 0.0mph - -
Wind- - North
Pressure: 30.30 in 30.16 in -
Precipitation: 0.00 in    
Historical Graphs
 
 
Tabular Data for January 2, 2018
Time Temperature Dew Point Pressure Wind Wind Speed Wind Gust Humidity Rainfall Rate (Hourly) solar Conditions
00:00 46.0 °F 42.7 °F 30.25 in Calm     88% 0.00 in 0.0 W/m2 RA
00:10 46.0 °F 41.8 °F 30.24 in Calm     85% 0.00 in 0.0 W/m2 OVC
00:15 46.0 °F 41.8 °F 30.24 in Calm     85% 0.00 in 0.0 W/m2 OVC
00:30 46.0 °F 41.8 °F 30.24 in Calm     85% 0.00 in 0.0 W/m2 OVC
00:40 46.0 °F 41.8 °F 30.24 in Calm     85% 0.00 in 0.0 W/m2 OVC
00:45 46.0 °F 41.8 °F 30.24 in Calm     85% 0.00 in 0.0 W/m2 OVC
00:55 46.0 °F 41.8 °F 30.24 in Calm     85% 0.00 in 0.0 W/m2 OVC
01:00 46.0 °F 41.8 °F 30.24 in Calm     85% 0.00 in 0.0 W/m2 OVC
01:10 45.0 °F 41.9 °F 30.23 in Calm     89% 0.00 in 0.0 W/m2 OVC
01:15 45.0 °F 41.9 °F 30.23 in Calm     89% 0.00 in 0.0 W/m2 OVC
01:25 45.0 °F 41.9 °F 30.23 in Calm     89% 0.00 in 0.0 W/m2 OVC
01:30 45.0 °F 41.9 °F 30.23 in Calm     89% 0.00 in 0.0 W/m2 OVC
01:45 45.0 °F 41.9 °F 30.23 in Calm     89% 0.00 in 0.0 W/m2 OVC
01:55 45.0 °F 41.9 °F 30.23 in Calm     89% 0.00 in 0.0 W/m2 OVC
02:05 45.0 °F 41.9 °F 30.23 in Calm     89% 0.00 in 0.0 W/m2 OVC
02:15 45.0 °F 41.9 °F 30.23 in Calm     89% 0.00 in 0.0 W/m2 OVC
02:25 45.0 °F 41.9 °F 30.23 in Calm     89% 0.00 in 0.0 W/m2 OVC
02:40 45.0 °F 41.9 °F 30.23 in Calm     89% 0.00 in 0.0 W/m2 OVC
02:45 45.0 °F 41.9 °F 30.23 in Calm     89% 0.00 in 0.0 W/m2 OVC
02:55 45.0 °F 41.9 °F 30.23 in Calm     89% 0.00 in 0.0 W/m2 OVC
03:00 45.0 °F 41.9 °F 30.23 in Calm     89% 0.00 in 0.0 W/m2 OVC
03:10 44.1 °F 40.7 °F 30.23 in Calm     88% 0.00 in 0.0 W/m2 OVC
03:15 44.1 °F 40.7 °F 30.23 in Calm     88% 0.00 in 0.0 W/m2 OVC
03:25 44.1 °F 40.7 °F 30.23 in Calm     88% 0.00 in 0.0 W/m2 OVC
03:30 44.1 °F 40.7 °F 30.23 in Calm     88% 0.00 in 0.0 W/m2 OVC
03:40 44.1 °F 40.7 °F 30.23 in Calm     88% 0.00 in 0.0 W/m2 OVC
03:55 44.1 °F 40.7 °F 30.23 in Calm     88% 0.00 in 0.0 W/m2 OVC
04:00 44.1 °F 40.7 °F 30.23 in Calm     88% 0.00 in 0.0 W/m2 OVC
04:10 45.0 °F 40.7 °F 30.24 in Calm     85% 0.00 in 0.0 W/m2 OVC
04:15 45.0 °F 40.7 °F 30.24 in Calm     85% 0.00 in 0.0 W/m2 OVC
04:25 45.0 °F 40.7 °F 30.24 in Calm     85% 0.00 in 0.0 W/m2 OVC
04:30 45.0 °F 40.7 °F 30.24 in Calm     85% 0.00 in 0.0 W/m2 OVC
04:40 45.0 °F 40.7 °F 30.24 in Calm     85% 0.00 in 0.0 W/m2 OVC
04:45 45.0 °F 40.7 °F 30.24 in Calm     85% 0.00 in 0.0 W/m2 OVC
05:00 44.1 °F 39.8 °F 30.23 in Calm     85% 0.00 in 0.0 W/m2 OVC
05:10 44.1 °F 40.7 °F 30.24 in Calm     88% 0.00 in 0.0 W/m2 OVC
05:15 44.1 °F 40.7 °F 30.24 in Calm     88% 0.00 in 0.0 W/m2 OVC
05:20 44.1 °F 40.7 °F 30.24 in Calm     88% 0.00 in 0.0 W/m2 OVC
05:30 44.1 °F 40.7 °F 30.24 in Calm     88% 0.00 in 0.0 W/m2 OVC
05:40 44.1 °F 40.7 °F 30.24 in Calm     88% 0.00 in 0.0 W/m2 OVC
05:45 44.1 °F 40.7 °F 30.24 in Calm     88% 0.00 in 0.0 W/m2 OVC
05:55 45.0 °F 40.7 °F 30.24 in Calm     85% 0.00 in 0.0 W/m2 OVC
06:00 45.0 °F 40.7 °F 30.24 in Calm     85% 0.00 in 0.0 W/m2 OVC
06:15 45.0 °F 40.7 °F 30.24 in Calm     85% 0.00 in 0.0 W/m2 OVC
06:25 45.0 °F 40.7 °F 30.24 in Calm     85% 0.00 in 0.0 W/m2 OVC
06:30 45.0 °F 40.7 °F 30.24 in Calm     85% 0.00 in 0.0 W/m2 OVC
06:40 45.0 °F 40.7 °F 30.24 in Calm     85% 0.00 in 0.0 W/m2 OVC
06:45 45.0 °F 40.7 °F 30.24 in Calm     85% 0.00 in 0.0 W/m2 OVC
07:00 45.0 °F 40.7 °F 30.24 in Calm     85% 0.00 in 0.0 W/m2 OVC
07:15 45.0 °F 39.8 °F 30.26 in Calm     82% 0.00 in 0.0 W/m2 OVC
07:25 45.0 °F 39.8 °F 30.26 in Calm     82% 0.00 in 0.0 W/m2 OVC
07:30 45.0 °F 39.8 °F 30.26 in Calm     82% 0.00 in 0.0 W/m2 OVC
07:40 45.0 °F 39.8 °F 30.26 in Calm     82% 0.00 in 0.0 W/m2 OVC
07:45 45.0 °F 39.8 °F 30.26 in Calm     82% 0.00 in 0.0 W/m2 OVC
07:55 45.0 °F 39.8 °F 30.26 in Calm     82% 0.00 in 0.0 W/m2 OVC
08:00 45.0 °F 39.8 °F 30.26 in Calm     82% 0.00 in 0.0 W/m2 OVC
08:05 46.0 °F 40.9 °F 30.27 in Calm     82% 0.00 in 0.0 W/m2 OVC
08:15 46.0 °F 40.9 °F 30.27 in Calm     82% 0.00 in 0.0 W/m2 OVC
08:30 46.0 °F 40.9 °F 30.27 in Calm     82% 0.00 in 0.0 W/m2 OVC
08:40 46.0 °F 40.9 °F 30.27 in Calm     82% 0.00 in 0.0 W/m2 OVC
08:45 46.0 °F 40.9 °F 30.27 in Calm     82% 0.00 in 0.0 W/m2 OVC
08:55 46.0 °F 40.9 °F 30.27 in Calm     82% 0.00 in 0.0 W/m2 OVC
09:00 46.0 °F 40.9 °F 30.27 in Calm     82% 0.00 in 0.0 W/m2 OVC
09:10 46.9 °F 42.0 °F 30.29 in Calm     83% 0.00 in 0.0 W/m2 OVC
09:20 46.9 °F 42.0 °F 30.29 in Calm     83% 0.00 in 0.0 W/m2 OVC
09:25 46.9 °F 42.0 °F 30.29 in Calm     83% 0.00 in 0.0 W/m2 OVC
09:30 46.9 °F 42.0 °F 30.29 in Calm     83% 0.00 in 0.0 W/m2 OVC
09:40 46.9 °F 42.0 °F 30.29 in Calm     83% 0.00 in 0.0 W/m2 OVC
10:00 46.9 °F 42.0 °F 30.29 in Calm     83% 0.00 in 0.0 W/m2 OVC
10:10 48.9 °F 42.7 °F 30.30 in Calm     79% 0.00 in 0.0 W/m2 OVC
10:25 48.9 °F 42.7 °F 30.30 in Calm     79% 0.00 in 0.0 W/m2 OVC
10:30 48.9 °F 42.7 °F 30.30 in Calm     79% 0.00 in 0.0 W/m2 OVC
10:40 48.9 °F 42.7 °F 30.30 in Calm     79% 0.00 in 0.0 W/m2 OVC
10:50 48.9 °F 42.7 °F 30.30 in Calm     79% 0.00 in 0.0 W/m2 OVC
10:55 48.9 °F 42.7 °F 30.30 in Calm     79% 0.00 in 0.0 W/m2 OVC
11:00 48.9 °F 42.7 °F 30.30 in Calm     79% 0.00 in 0.0 W/m2 OVC
11:15 51.1 °F 44.8 °F 30.27 in Calm     79% 0.00 in 0.0 W/m2 OVC
11:30 51.1 °F 44.8 °F 30.27 in Calm     79% 0.00 in 0.0 W/m2 OVC
11:40 51.1 °F 44.8 °F 30.27 in Calm     79% 0.00 in 0.0 W/m2 OVC
11:45 51.1 °F 44.8 °F 30.27 in Calm     79% 0.00 in 0.0 W/m2 OVC
12:00 51.1 °F 44.8 °F 30.27 in Calm     79% 0.00 in 0.0 W/m2 OVC
12:10 52.0 °F 46.0 °F 30.26 in Calm     80% 0.00 in 0.0 W/m2 OVC
12:15 52.0 °F 46.0 °F 30.26 in Calm     80% 0.00 in 0.0 W/m2 OVC
12:20 52.0 °F 46.0 °F 30.26 in Calm     80% 0.00 in 0.0 W/m2 OVC
12:30 52.0 °F 46.0 °F 30.26 in Calm     80% 0.00 in 0.0 W/m2 OVC
12:45 52.0 °F 46.0 °F 30.26 in Calm     80% 0.00 in 0.0 W/m2 OVC
12:55 52.0 °F 46.0 °F 30.26 in Calm     80% 0.00 in 0.0 W/m2 OVC
13:05 55.0 °F 46.9 °F 30.23 in Calm     74% 0.00 in 0.0 W/m2 OVC
13:10 55.0 °F 46.9 °F 30.23 in Calm     74% 0.00 in 0.0 W/m2 OVC
13:15 55.0 °F 46.9 °F 30.23 in Calm     74% 0.00 in 0.0 W/m2 OVC
13:20 55.0 °F 46.9 °F 30.23 in Calm     74% 0.00 in 0.0 W/m2 OVC
13:30 55.0 °F 46.9 °F 30.23 in Calm     74% 0.00 in 0.0 W/m2 OVC
13:45 55.0 °F 46.9 °F 30.23 in Calm     74% 0.00 in 0.0 W/m2 OVC
14:00 55.0 °F 46.9 °F 30.23 in Calm     74% 0.00 in 0.0 W/m2 OVC
14:10 54.0 °F 46.9 °F 30.21 in Calm     77% 0.00 in 0.0 W/m2 OVC
14:15 54.0 °F 46.9 °F 30.21 in Calm     77% 0.00 in 0.0 W/m2 OVC
14:25 54.0 °F 46.9 °F 30.21 in Calm     77% 0.00 in 0.0 W/m2 OVC
14:30 54.0 °F 46.9 °F 30.21 in Calm     77% 0.00 in 0.0 W/m2 OVC
14:40 54.0 °F 46.9 °F 30.21 in Calm     77% 0.00 in 0.0 W/m2 OVC
14:45 54.0 °F 46.9 °F 30.21 in Calm     77% 0.00 in 0.0 W/m2 OVC
14:55 54.0 °F 46.9 °F 30.21 in Calm     77% 0.00 in 0.0 W/m2 OVC
15:00 54.0 °F 46.9 °F 30.21 in Calm     77% 0.00 in 0.0 W/m2 OVC
15:10 53.1 °F 46.7 °F 30.20 in Calm     79% 0.00 in 0.0 W/m2 OVC
15:20 53.1 °F 46.7 °F 30.20 in Calm     79% 0.00 in 0.0 W/m2 OVC
15:25 53.1 °F 46.7 °F 30.20 in Calm     79% 0.00 in 0.0 W/m2 OVC
15:40 53.1 °F 46.7 °F 30.20 in Calm     79% 0.00 in 0.0 W/m2 OVC
16:00 53.1 °F 46.7 °F 30.20 in Calm     79% 0.00 in 0.0 W/m2 OVC
16:15 52.0 °F 46.0 °F 30.20 in Calm     80% 0.00 in 0.0 W/m2 OVC
16:25 52.0 °F 46.0 °F 30.20 in Calm     80% 0.00 in 0.0 W/m2 OVC
16:40 52.0 °F 46.0 °F 30.20 in Calm     80% 0.00 in 0.0 W/m2 OVC
16:45 52.0 °F 46.0 °F 30.20 in Calm     80% 0.00 in 0.0 W/m2 OVC
16:55 52.0 °F 46.0 °F 30.20 in Calm     80% 0.00 in 0.0 W/m2 OVC
17:00 52.0 °F 46.0 °F 30.20 in Calm     80% 0.00 in 0.0 W/m2 OVC
17:10 51.1 °F 45.8 °F 30.21 in Calm     82% 0.00 in 0.0 W/m2 OVC
17:15 51.1 °F 45.8 °F 30.21 in Calm     82% 0.00 in 0.0 W/m2 OVC
17:25 51.1 °F 45.8 °F 30.21 in Calm     82% 0.00 in 0.0 W/m2 OVC
17:30 51.1 °F 45.8 °F 30.21 in Calm     82% 0.00 in 0.0 W/m2 OVC
17:40 51.1 °F 45.8 °F 30.21 in Calm     82% 0.00 in 0.0 W/m2 OVC
17:45 51.1 °F 45.8 °F 30.21 in Calm     82% 0.00 in 0.0 W/m2 OVC
17:55 51.1 °F 45.8 °F 30.21 in Calm     82% 0.00 in 0.0 W/m2 OVC
18:00 51.1 °F 45.8 °F 30.21 in Calm     82% 0.00 in 0.0 W/m2 OVC
18:15 50.0 °F 43.7 °F 30.21 in Calm     79% 0.00 in 0.0 W/m2 OVC
18:30 50.0 °F 43.7 °F 30.21 in Calm     79% 0.00 in 0.0 W/m2 OVC
18:40 50.0 °F 43.7 °F 30.21 in Calm     79% 0.00 in 0.0 W/m2 OVC
18:45 50.0 °F 43.7 °F 30.21 in Calm     79% 0.00 in 0.0 W/m2 OVC
18:55 50.0 °F 43.7 °F 30.21 in Calm     79% 0.00 in 0.0 W/m2 OVC
19:00 50.0 °F 43.7 °F 30.21 in Calm     79% 0.00 in 0.0 W/m2 OVC
19:15 50.0 °F 43.7 °F 30.21 in Calm     79% 0.00 in 0.0 W/m2 OVC
19:25 50.0 °F 43.7 °F 30.21 in Calm     79% 0.00 in 0.0 W/m2 OVC
19:30 50.0 °F 43.7 °F 30.21 in Calm     79% 0.00 in 0.0 W/m2 OVC
19:40 50.0 °F 43.7 °F 30.21 in Calm     79% 0.00 in 0.0 W/m2 OVC
19:45 50.0 °F 43.7 °F 30.21 in Calm     79% 0.00 in 0.0 W/m2 OVC
19:55 50.0 °F 43.7 °F 30.21 in Calm     79% 0.00 in 0.0 W/m2 OVC
20:00 50.0 °F 43.7 °F 30.21 in Calm     79% 0.00 in 0.0 W/m2 OVC
20:10 48.9 °F 44.0 °F 30.21 in Calm     83% 0.00 in 0.0 W/m2 OVC
20:15 48.9 °F 44.0 °F 30.21 in Calm     83% 0.00 in 0.0 W/m2 OVC
20:25 48.9 °F 44.0 °F 30.21 in Calm     83% 0.00 in 0.0 W/m2 OVC
20:35 48.9 °F 44.0 °F 30.21 in Calm     83% 0.00 in 0.0 W/m2 OVC
20:45 48.9 °F 44.0 °F 30.21 in Calm     83% 0.00 in 0.0 W/m2 OVC
21:00 48.9 °F 44.0 °F 30.21 in Calm     83% 0.00 in 0.0 W/m2 OVC
21:25 48.9 °F 44.0 °F 30.19 in Calm     83% 0.00 in 0.0 W/m2 OVC
21:30 48.9 °F 44.0 °F 30.19 in Calm     83% 0.00 in 0.0 W/m2 OVC
21:40 48.9 °F 44.0 °F 30.19 in Calm     83% 0.00 in 0.0 W/m2 OVC
21:45 48.9 °F 44.0 °F 30.19 in Calm     83% 0.00 in 0.0 W/m2 OVC
21:55 48.9 °F 44.0 °F 30.19 in Calm     83% 0.00 in 0.0 W/m2 OVC
22:00 48.9 °F 44.0 °F 30.19 in Calm     83% 0.00 in 0.0 W/m2 OVC
22:10 48.9 °F 44.0 °F 30.19 in Calm     83% 0.00 in 0.0 W/m2 OVC
22:20 48.9 °F 44.0 °F 30.19 in Calm     83% 0.00 in 0.0 W/m2 OVC
22:40 48.9 °F 44.0 °F 30.19 in Calm     83% 0.00 in 0.0 W/m2 OVC
22:45 48.9 °F 44.0 °F 30.19 in Calm     83% 0.00 in 0.0 W/m2 OVC
23:00 48.9 °F 44.0 °F 30.19 in Calm     83% 0.00 in 0.0 W/m2 OVC
23:15 48.0 °F 44.9 °F 30.17 in Calm     89% 0.00 in 0.0 W/m2 OVC
23:20 48.0 °F 45.8 °F 30.16 in Calm     92% 0.00 in 0.0 W/m2 OVC
23:30 48.0 °F 45.8 °F 30.16 in Calm     92% 0.00 in 0.0 W/m2 OVC
23:40 48.0 °F 45.8 °F 30.16 in Calm     92% 0.00 in 0.0 W/m2 OVC
23:55 48.0 °F 45.8 °F 30.16 in Calm     92% 0.00 in 0.0 W/m2 OVC
Lake Mary, FL, USA
Compliments of Weather Underground - 1.5 mb